sensor_id;sensor_type;location;lat;lon;timestamp;temperature;humidity
20977;DHT22;10647;51.016;3.720;2022-12-20T00:01:30;12.80;99.90
20977;DHT22;10647;51.016;3.720;2022-12-20T00:04:00;12.70;99.90
20977;DHT22;10647;51.016;3.720;2022-12-20T00:06:29;12.60;99.90
20977;DHT22;10647;51.016;3.720;2022-12-20T00:08:59;12.60;99.90
20977;DHT22;10647;51.016;3.720;2022-12-20T00:11:28;12.60;99.90
20977;DHT22;10647;51.016;3.720;2022-12-20T00:13:56;12.60;99.90
20977;DHT22;10647;51.016;3.720;2022-12-20T00:16:26;12.50;99.90
20977;DHT22;10647;51.016;3.720;2022-12-20T00:18:56;12.50;99.90
20977;DHT22;10647;51.016;3.720;2022-12-20T00:21:24;12.50;99.90
20977;DHT22;10647;51.016;3.720;2022-12-20T00:23:53;12.50;99.90
20977;DHT22;10647;51.016;3.720;2022-12-20T00:26:23;12.50;99.90
20977;DHT22;10647;51.016;3.720;2022-12-20T00:28:51;12.50;99.90
20977;DHT22;10647;51.016;3.720;2022-12-20T00:31:20;12.40;99.90
20977;DHT22;10647;51.016;3.720;2022-12-20T00:33:50;12.40;99.90
20977;DHT22;10647;51.016;3.720;2022-12-20T00:36:19;12.40;99.90
20977;DHT22;10647;51.016;3.720;2022-12-20T00:38:49;12.40;99.90
20977;DHT22;10647;51.016;3.720;2022-12-20T00:41:19;12.40;99.90
20977;DHT22;10647;51.016;3.720;2022-12-20T00:43:48;12.40;99.90
20977;DHT22;10647;51.016;3.720;2022-12-20T00:46:17;12.40;99.90
20977;DHT22;10647;51.016;3.720;2022-12-20T00:48:45;12.40;99.90
20977;DHT22;10647;51.016;3.720;2022-12-20T00:51:15;12.40;99.90
20977;DHT22;10647;51.016;3.720;2022-12-20T00:53:43;12.40;99.90
20977;DHT22;10647;51.016;3.720;2022-12-20T00:56:11;12.40;99.90
20977;DHT22;10647;51.016;3.720;2022-12-20T00:58:40;12.40;99.90
20977;DHT22;10647;51.016;3.720;2022-12-20T01:03:55;12.30;99.90
20977;DHT22;10647;51.016;3.720;2022-12-20T01:06:23;12.40;99.90
20977;DHT22;10647;51.016;3.720;2022-12-20T01:08:52;12.30;99.90
20977;DHT22;10647;51.016;3.720;2022-12-20T01:11:23;12.30;99.90
20977;DHT22;10647;51.016;3.720;2022-12-20T01:13:52;12.30;99.90
20977;DHT22;10647;51.016;3.720;2022-12-20T01:16:27;12.30;99.90
20977;DHT22;10647;51.016;3.720;2022-12-20T01:18:55;12.30;99.90
20977;DHT22;10647;51.016;3.720;2022-12-20T01:21:25;12.30;99.90
20977;DHT22;10647;51.016;3.720;2022-12-20T01:23:53;12.30;99.90
20977;DHT22;10647;51.016;3.720;2022-12-20T01:26:23;12.30;99.90
20977;DHT22;10647;51.016;3.720;2022-12-20T01:28:54;12.30;99.90
20977;DHT22;10647;51.016;3.720;2022-12-20T01:31:22;12.40;99.90
20977;DHT22;10647;51.016;3.720;2022-12-20T01:33:52;12.40;99.90
20977;DHT22;10647;51.016;3.720;2022-12-20T01:36:22;12.40;99.90
20977;DHT22;10647;51.016;3.720;2022-12-20T01:38:54;12.40;99.90
20977;DHT22;10647;51.016;3.720;2022-12-20T01:49:42;12.60;99.90
20977;DHT22;10647;51.016;3.720;2022-12-20T01:52:20;12.60;99.90
20977;DHT22;10647;51.016;3.720;2022-12-20T01:55:12;12.60;99.90
20977;DHT22;10647;51.016;3.720;2022-12-20T01:58:02;12.70;99.90
20977;DHT22;10647;51.016;3.720;2022-12-20T02:00:39;12.60;99.90
20977;DHT22;10647;51.016;3.720;2022-12-20T02:03:11;12.60;99.90
20977;DHT22;10647;51.016;3.720;2022-12-20T02:08:29;12.60;99.90
20977;DHT22;10647;51.016;3.720;2022-12-20T02:11:14;12.60;99.90
20977;DHT22;10647;51.016;3.720;2022-12-20T02:16:27;12.60;99.90
20977;DHT22;10647;51.016;3.720;2022-12-20T02:18:58;12.50;99.90
20977;DHT22;10647;51.016;3.720;2022-12-20T02:21:44;12.50;99.90
20977;DHT22;10647;51.016;3.720;2022-12-20T02:24:36;12.40;99.90
20977;DHT22;10647;51.016;3.720;2022-12-20T02:27:24;12.40;99.90
20977;DHT22;10647;51.016;3.720;2022-12-20T02:30:14;12.40;99.90
20977;DHT22;10647;51.016;3.720;2022-12-20T02:32:47;12.30;99.90
20977;DHT22;10647;51.016;3.720;2022-12-20T02:35:18;12.30;99.90
20977;DHT22;10647;51.016;3.720;2022-12-20T02:37:58;12.30;99.90
20977;DHT22;10647;51.016;3.720;2022-12-20T02:40:39;12.40;99.90
20977;DHT22;10647;51.016;3.720;2022-12-20T02:43:09;12.40;99.90
20977;DHT22;10647;51.016;3.720;2022-12-20T02:45:40;12.50;99.90
20977;DHT22;10647;51.016;3.720;2022-12-20T02:48:09;12.50;99.90
20977;DHT22;10647;51.016;3.720;2022-12-20T02:50:45;12.70;99.90
20977;DHT22;10647;51.016;3.720;2022-12-20T02:56:32;12.80;99.90
20977;DHT22;10647;51.016;3.720;2022-12-20T02:59:22;12.80;99.90
20977;DHT22;10647;51.016;3.720;2022-12-20T03:01:53;12.70;99.90
20977;DHT22;10647;51.016;3.720;2022-12-20T03:04:29;12.60;99.90
20977;DHT22;10647;51.016;3.720;2022-12-20T03:06:59;12.60;99.90
20977;DHT22;10647;51.016;3.720;2022-12-20T03:09:30;12.60;99.90
20977;DHT22;10647;51.016;3.720;2022-12-20T03:11:57;12.70;99.90
20977;DHT22;10647;51.016;3.720;2022-12-20T03:14:28;12.70;99.90
20977;DHT22;10647;51.016;3.720;2022-12-20T03:16:59;12.70;99.90
20977;DHT22;10647;51.016;3.720;2022-12-20T03:19:27;12.70;99.90
20977;DHT22;10647;51.016;3.720;2022-12-20T03:21:55;12.70;99.90
20977;DHT22;10647;51.016;3.720;2022-12-20T03:24:26;12.70;99.90
20977;DHT22;10647;51.016;3.720;2022-12-20T03:26:53;12.70;99.90
20977;DHT22;10647;51.016;3.720;2022-12-20T03:29:23;12.60;99.90
20977;DHT22;10647;51.016;3.720;2022-12-20T03:31:51;12.60;99.90
20977;DHT22;10647;51.016;3.720;2022-12-20T03:34:18;12.70;99.90
20977;DHT22;10647;51.016;3.720;2022-12-20T03:36:46;12.70;99.90
20977;DHT22;10647;51.016;3.720;2022-12-20T03:39:13;12.80;99.90
20977;DHT22;10647;51.016;3.720;2022-12-20T03:41:41;12.70;99.90
20977;DHT22;10647;51.016;3.720;2022-12-20T03:44:08;12.80;99.90
20977;DHT22;10647;51.016;3.720;2022-12-20T03:46:36;12.80;99.90
20977;DHT22;10647;51.016;3.720;2022-12-20T03:49:09;12.90;99.90
20977;DHT22;10647;51.016;3.720;2022-12-20T03:51:40;12.90;99.90
20977;DHT22;10647;51.016;3.720;2022-12-20T03:54:07;12.90;99.90
20977;DHT22;10647;51.016;3.720;2022-12-20T03:56:40;12.90;99.90
20977;DHT22;10647;51.016;3.720;2022-12-20T03:59:09;13.00;99.90
20977;DHT22;10647;51.016;3.720;2022-12-20T04:01:42;13.00;99.90
20977;DHT22;10647;51.016;3.720;2022-12-20T04:04:12;13.00;99.90
20977;DHT22;10647;51.016;3.720;2022-12-20T04:06:42;13.10;99.90
20977;DHT22;10647;51.016;3.720;2022-12-20T04:09:10;13.10;99.90
20977;DHT22;10647;51.016;3.720;2022-12-20T04:11:39;13.20;99.90
20977;DHT22;10647;51.016;3.720;2022-12-20T04:14:06;13.20;99.90
20977;DHT22;10647;51.016;3.720;2022-12-20T04:16:34;13.20;99.90
20977;DHT22;10647;51.016;3.720;2022-12-20T04:19:02;13.30;99.90
20977;DHT22;10647;51.016;3.720;2022-12-20T04:21:32;13.30;99.90
20977;DHT22;10647;51.016;3.720;2022-12-20T04:24:01;13.30;99.90
20977;DHT22;10647;51.016;3.720;2022-12-20T04:26:30;13.30;99.90
20977;DHT22;10647;51.016;3.720;2022-12-20T04:28:57;13.30;99.90
20977;DHT22;10647;51.016;3.720;2022-12-20T04:31:25;13.30;99.90
20977;DHT22;10647;51.016;3.720;2022-12-20T04:33:54;13.30;99.90
20977;DHT22;10647;51.016;3.720;2022-12-20T04:36:21;13.30;99.90
20977;DHT22;10647;51.016;3.720;2022-12-20T04:38:49;13.30;99.90
20977;DHT22;10647;51.016;3.720;2022-12-20T04:41:17;13.30;99.90
20977;DHT22;10647;51.016;3.720;2022-12-20T04:43:49;13.20;99.90
20977;DHT22;10647;51.016;3.720;2022-12-20T04:46:20;13.20;99.90
20977;DHT22;10647;51.016;3.720;2022-12-20T04:48:48;13.10;99.90
20977;DHT22;10647;51.016;3.720;2022-12-20T04:51:21;13.10;99.90
20977;DHT22;10647;51.016;3.720;2022-12-20T04:53:52;13.10;99.90
20977;DHT22;10647;51.016;3.720;2022-12-20T04:56:23;13.10;99.90
20977;DHT22;10647;51.016;3.720;2022-12-20T04:58:54;13.10;99.90
20977;DHT22;10647;51.016;3.720;2022-12-20T05:01:22;13.10;99.90
20977;DHT22;10647;51.016;3.720;2022-12-20T05:03:53;13.10;99.90
20977;DHT22;10647;51.016;3.720;2022-12-20T05:06:21;13.10;99.90
20977;DHT22;10647;51.016;3.720;2022-12-20T05:08:50;13.20;99.90
20977;DHT22;10647;51.016;3.720;2022-12-20T05:11:18;13.20;99.90
20977;DHT22;10647;51.016;3.720;2022-12-20T05:13:52;13.20;99.90
20977;DHT22;10647;51.016;3.720;2022-12-20T05:16:19;13.20;99.90
20977;DHT22;10647;51.016;3.720;2022-12-20T05:18:50;13.30;99.90
20977;DHT22;10647;51.016;3.720;2022-12-20T05:21:18;13.30;99.90
20977;DHT22;10647;51.016;3.720;2022-12-20T05:24:05;13.20;99.90
20977;DHT22;10647;51.016;3.720;2022-12-20T05:27:10;13.20;99.90
20977;DHT22;10647;51.016;3.720;2022-12-20T05:29:38;13.20;99.90
20977;DHT22;10647;51.016;3.720;2022-12-20T05:32:05;13.20;99.90
20977;DHT22;10647;51.016;3.720;2022-12-20T05:34:33;13.10;99.90
20977;DHT22;10647;51.016;3.720;2022-12-20T05:37:00;13.20;99.90
20977;DHT22;10647;51.016;3.720;2022-12-20T05:39:28;13.20;99.90
20977;DHT22;10647;51.016;3.720;2022-12-20T05:41:56;13.30;99.90
20977;DHT22;10647;51.016;3.720;2022-12-20T05:44:24;13.30;99.90
20977;DHT22;10647;51.016;3.720;2022-12-20T05:46:51;13.30;99.90
20977;DHT22;10647;51.016;3.720;2022-12-20T05:49:20;13.30;99.90
20977;DHT22;10647;51.016;3.720;2022-12-20T05:51:47;13.30;99.90
20977;DHT22;10647;51.016;3.720;2022-12-20T05:54:15;13.30;99.90
20977;DHT22;10647;51.016;3.720;2022-12-20T05:56:42;13.40;99.90
20977;DHT22;10647;51.016;3.720;2022-12-20T05:59:20;13.40;99.90
20977;DHT22;10647;51.016;3.720;2022-12-20T06:01:47;13.40;99.90
20977;DHT22;10647;51.016;3.720;2022-12-20T06:04:15;13.40;99.90
20977;DHT22;10647;51.016;3.720;2022-12-20T06:06:42;13.40;99.90
20977;DHT22;10647;51.016;3.720;2022-12-20T06:09:10;13.40;99.90
20977;DHT22;10647;51.016;3.720;2022-12-20T06:11:44;13.40;99.90
20977;DHT22;10647;51.016;3.720;2022-12-20T06:14:13;13.30;99.90
20977;DHT22;10647;51.016;3.720;2022-12-20T06:16:42;13.40;99.90
20977;DHT22;10647;51.016;3.720;2022-12-20T06:19:13;13.40;99.90
20977;DHT22;10647;51.016;3.720;2022-12-20T06:21:40;13.40;99.90
20977;DHT22;10647;51.016;3.720;2022-12-20T06:24:08;13.40;99.90
20977;DHT22;10647;51.016;3.720;2022-12-20T06:26:35;13.40;99.90
20977;DHT22;10647;51.016;3.720;2022-12-20T06:29:04;13.40;99.90
20977;DHT22;10647;51.016;3.720;2022-12-20T06:31:37;13.50;99.90
20977;DHT22;10647;51.016;3.720;2022-12-20T06:34:04;13.40;99.90
20977;DHT22;10647;51.016;3.720;2022-12-20T06:36:33;13.40;99.90
20977;DHT22;10647;51.016;3.720;2022-12-20T06:39:01;13.40;99.90
20977;DHT22;10647;51.016;3.720;2022-12-20T06:41:29;13.20;99.90
20977;DHT22;10647;51.016;3.720;2022-12-20T06:43:56;13.30;99.90
20977;DHT22;10647;51.016;3.720;2022-12-20T06:46:24;13.30;99.90
20977;DHT22;10647;51.016;3.720;2022-12-20T06:48:54;13.20;99.90
20977;DHT22;10647;51.016;3.720;2022-12-20T06:51:22;13.20;99.90
20977;DHT22;10647;51.016;3.720;2022-12-20T06:53:49;13.20;99.90
20977;DHT22;10647;51.016;3.720;2022-12-20T06:56:17;13.30;99.90
20977;DHT22;10647;51.016;3.720;2022-12-20T06:58:45;13.30;99.90
20977;DHT22;10647;51.016;3.720;2022-12-20T07:01:13;13.30;99.90
20977;DHT22;10647;51.016;3.720;2022-12-20T07:03:40;13.30;99.90
20977;DHT22;10647;51.016;3.720;2022-12-20T07:06:09;13.20;99.90
20977;DHT22;10647;51.016;3.720;2022-12-20T07:08:36;13.10;99.90
20977;DHT22;10647;51.016;3.720;2022-12-20T07:11:05;13.10;99.90
20977;DHT22;10647;51.016;3.720;2022-12-20T07:13:33;13.10;99.90
20977;DHT22;10647;51.016;3.720;2022-12-20T07:16:02;13.00;99.90
20977;DHT22;10647;51.016;3.720;2022-12-20T07:18:30;12.90;99.90
20977;DHT22;10647;51.016;3.720;2022-12-20T07:21:05;12.80;99.90
20977;DHT22;10647;51.016;3.720;2022-12-20T07:23:33;12.90;99.90
20977;DHT22;10647;51.016;3.720;2022-12-20T07:26:00;12.80;99.90
20977;DHT22;10647;51.016;3.720;2022-12-20T07:28:29;12.80;99.90
20977;DHT22;10647;51.016;3.720;2022-12-20T07:31:01;12.80;99.90
20977;DHT22;10647;51.016;3.720;2022-12-20T07:33:30;12.80;99.90
20977;DHT22;10647;51.016;3.720;2022-12-20T07:38:49;12.70;99.90
20977;DHT22;10647;51.016;3.720;2022-12-20T07:41:25;12.60;99.90
20977;DHT22;10647;51.016;3.720;2022-12-20T07:43:53;12.60;99.90
20977;DHT22;10647;51.016;3.720;2022-12-20T07:46:23;12.60;99.90
20977;DHT22;10647;51.016;3.720;2022-12-20T07:48:56;12.60;99.90
20977;DHT22;10647;51.016;3.720;2022-12-20T07:51:30;12.50;99.90
20977;DHT22;10647;51.016;3.720;2022-12-20T07:56:51;12.50;99.90
20977;DHT22;10647;51.016;3.720;2022-12-20T07:59:28;12.50;99.90
20977;DHT22;10647;51.016;3.720;2022-12-20T08:02:02;12.50;99.90
20977;DHT22;10647;51.016;3.720;2022-12-20T08:04:30;12.50;99.90
20977;DHT22;10647;51.016;3.720;2022-12-20T08:07:00;12.50;99.90
20977;DHT22;10647;51.016;3.720;2022-12-20T08:09:30;12.50;99.90
20977;DHT22;10647;51.016;3.720;2022-12-20T08:12:00;12.60;99.90
20977;DHT22;10647;51.016;3.720;2022-12-20T08:14:28;12.50;99.90
20977;DHT22;10647;51.016;3.720;2022-12-20T08:16:57;12.50;99.90
20977;DHT22;10647;51.016;3.720;2022-12-20T08:19:45;12.60;99.90
20977;DHT22;10647;51.016;3.720;2022-12-20T08:22:13;12.60;99.90
20977;DHT22;10647;51.016;3.720;2022-12-20T08:24:42;12.60;99.90
20977;DHT22;10647;51.016;3.720;2022-12-20T08:27:13;12.70;99.90
20977;DHT22;10647;51.016;3.720;2022-12-20T08:29:43;12.80;99.90
20977;DHT22;10647;51.016;3.720;2022-12-20T08:32:17;12.80;99.90
20977;DHT22;10647;51.016;3.720;2022-12-20T08:34:52;12.90;99.90
20977;DHT22;10647;51.016;3.720;2022-12-20T08:37:20;12.80;99.90
20977;DHT22;10647;51.016;3.720;2022-12-20T08:39:51;12.90;99.90
20977;DHT22;10647;51.016;3.720;2022-12-20T08:42:20;12.90;99.90
20977;DHT22;10647;51.016;3.720;2022-12-20T08:44:49;13.00;99.90
20977;DHT22;10647;51.016;3.720;2022-12-20T08:47:17;13.00;99.90
20977;DHT22;10647;51.016;3.720;2022-12-20T08:50:04;13.00;99.90
20977;DHT22;10647;51.016;3.720;2022-12-20T08:52:38;13.00;99.90
20977;DHT22;10647;51.016;3.720;2022-12-20T08:55:06;13.00;99.90
20977;DHT22;10647;51.016;3.720;2022-12-20T08:57:39;13.00;99.90
20977;DHT22;10647;51.016;3.720;2022-12-20T09:00:07;13.00;99.90
20977;DHT22;10647;51.016;3.720;2022-12-20T09:02:35;13.00;99.90
20977;DHT22;10647;51.016;3.720;2022-12-20T09:05:03;13.00;99.90
20977;DHT22;10647;51.016;3.720;2022-12-20T09:07:32;13.00;99.90
20977;DHT22;10647;51.016;3.720;2022-12-20T09:10:00;13.10;99.90
20977;DHT22;10647;51.016;3.720;2022-12-20T09:12:28;13.20;99.90
20977;DHT22;10647;51.016;3.720;2022-12-20T09:14:58;13.20;99.90
20977;DHT22;10647;51.016;3.720;2022-12-20T09:17:25;13.20;99.90
20977;DHT22;10647;51.016;3.720;2022-12-20T09:19:53;13.30;99.90
20977;DHT22;10647;51.016;3.720;2022-12-20T09:22:32;13.20;99.90
20977;DHT22;10647;51.016;3.720;2022-12-20T09:25:00;13.20;99.90
20977;DHT22;10647;51.016;3.720;2022-12-20T09:27:30;13.20;99.90
20977;DHT22;10647;51.016;3.720;2022-12-20T09:30:13;13.20;99.90
20977;DHT22;10647;51.016;3.720;2022-12-20T09:32:40;13.20;99.90
20977;DHT22;10647;51.016;3.720;2022-12-20T09:35:27;13.20;99.90
20977;DHT22;10647;51.016;3.720;2022-12-20T09:37:58;13.10;99.90
20977;DHT22;10647;51.016;3.720;2022-12-20T09:40:29;13.10;99.90
20977;DHT22;10647;51.016;3.720;2022-12-20T09:42:59;13.00;99.90
20977;DHT22;10647;51.016;3.720;2022-12-20T09:45:33;13.00;99.90
20977;DHT22;10647;51.016;3.720;2022-12-20T09:48:08;13.00;99.90
20977;DHT22;10647;51.016;3.720;2022-12-20T09:57:02;13.00;99.90
20977;DHT22;10647;51.016;3.720;2022-12-20T09:59:28;13.00;99.90
20977;DHT22;10647;51.016;3.720;2022-12-20T10:01:55;12.90;99.90
20977;DHT22;10647;51.016;3.720;2022-12-20T10:04:30;12.90;99.90
20977;DHT22;10647;51.016;3.720;2022-12-20T10:15:45;13.00;99.90
20977;DHT22;10647;51.016;3.720;2022-12-20T10:21:18;13.10;99.90
20977;DHT22;10647;51.016;3.720;2022-12-20T10:24:18;13.10;99.90
20977;DHT22;10647;51.016;3.720;2022-12-20T10:26:48;13.10;99.90
20977;DHT22;10647;51.016;3.720;2022-12-20T10:29:22;13.10;99.90
20977;DHT22;10647;51.016;3.720;2022-12-20T10:31:57;13.10;99.90
20977;DHT22;10647;51.016;3.720;2022-12-20T10:34:23;13.10;99.90
20977;DHT22;10647;51.016;3.720;2022-12-20T10:37:11;13.10;99.90
20977;DHT22;10647;51.016;3.720;2022-12-20T10:39:48;13.10;99.90
20977;DHT22;10647;51.016;3.720;2022-12-20T10:47:50;13.20;99.90
20977;DHT22;10647;51.016;3.720;2022-12-20T10:50:21;13.30;99.90
20977;DHT22;10647;51.016;3.720;2022-12-20T10:58:33;13.40;99.90
20977;DHT22;10647;51.016;3.720;2022-12-20T11:01:15;13.40;99.90
20977;DHT22;10647;51.016;3.720;2022-12-20T11:04:04;13.50;99.90
20977;DHT22;10647;51.016;3.720;2022-12-20T11:06:42;13.50;99.90
20977;DHT22;10647;51.016;3.720;2022-12-20T11:09:25;13.50;99.90
20977;DHT22;10647;51.016;3.720;2022-12-20T11:14:26;13.60;99.90
20977;DHT22;10647;51.016;3.720;2022-12-20T11:16:57;13.50;99.90
20977;DHT22;10647;51.016;3.720;2022-12-20T11:30:55;13.40;99.90
20977;DHT22;10647;51.016;3.720;2022-12-20T11:39:32;13.30;99.90
20977;DHT22;10647;51.016;3.720;2022-12-20T11:53:36;13.20;99.90
20977;DHT22;10647;51.016;3.720;2022-12-20T11:56:11;13.20;99.90
20977;DHT22;10647;51.016;3.720;2022-12-20T11:58:45;13.20;99.90
20977;DHT22;10647;51.016;3.720;2022-12-20T12:01:21;13.10;99.90
20977;DHT22;10647;51.016;3.720;2022-12-20T12:04:05;13.10;99.90
20977;DHT22;10647;51.016;3.720;2022-12-20T12:06:39;13.10;99.90
20977;DHT22;10647;51.016;3.720;2022-12-20T12:09:22;13.10;99.90
20977;DHT22;10647;51.016;3.720;2022-12-20T12:20:43;13.00;99.90
20977;DHT22;10647;51.016;3.720;2022-12-20T12:25:53;13.00;99.90
20977;DHT22;10647;51.016;3.720;2022-12-20T12:28:22;13.00;99.90
20977;DHT22;10647;51.016;3.720;2022-12-20T12:31:02;13.00;99.90
20977;DHT22;10647;51.016;3.720;2022-12-20T12:33:33;13.00;99.90
20977;DHT22;10647;51.016;3.720;2022-12-20T12:45:05;12.90;99.90
20977;DHT22;10647;51.016;3.720;2022-12-20T12:47:53;12.80;99.90
20977;DHT22;10647;51.016;3.720;2022-12-20T12:50:29;12.80;99.90
20977;DHT22;10647;51.016;3.720;2022-12-20T12:53:12;12.80;99.90
20977;DHT22;10647;51.016;3.720;2022-12-20T12:55:58;12.80;99.90
20977;DHT22;10647;51.016;3.720;2022-12-20T12:58:30;12.90;99.90
20977;DHT22;10647;51.016;3.720;2022-12-20T13:01:12;12.90;99.90
20977;DHT22;10647;51.016;3.720;2022-12-20T13:15:45;12.80;99.90
20977;DHT22;10647;51.016;3.720;2022-12-20T13:17:41;12.70;99.90
20977;DHT22;10647;51.016;3.720;2022-12-20T13:25:57;12.80;99.90
20977;DHT22;10647;51.016;3.720;2022-12-20T13:34:33;12.80;99.90
20977;DHT22;10647;51.016;3.720;2022-12-20T13:36:38;12.80;99.90
20977;DHT22;10647;51.016;3.720;2022-12-20T13:42:16;12.70;99.90
20977;DHT22;10647;51.016;3.720;2022-12-20T13:44:50;12.80;99.90
20977;DHT22;10647;51.016;3.720;2022-12-20T13:47:40;12.80;99.90
20977;DHT22;10647;51.016;3.720;2022-12-20T13:53:26;12.70;99.90
20977;DHT22;10647;51.016;3.720;2022-12-20T13:55:54;12.60;99.90
20977;DHT22;10647;51.016;3.720;2022-12-20T13:58:32;12.50;99.90
20977;DHT22;10647;51.016;3.720;2022-12-20T14:01:24;12.60;99.90
20977;DHT22;10647;51.016;3.720;2022-12-20T14:03:52;12.60;99.90
20977;DHT22;10647;51.016;3.720;2022-12-20T14:06:22;12.60;99.90
20977;DHT22;10647;51.016;3.720;2022-12-20T14:08:53;12.60;99.90
20977;DHT22;10647;51.016;3.720;2022-12-20T14:11:23;12.60;99.90
20977;DHT22;10647;51.016;3.720;2022-12-20T14:14:02;12.70;99.90
20977;DHT22;10647;51.016;3.720;2022-12-20T14:16:31;12.70;99.90
20977;DHT22;10647;51.016;3.720;2022-12-20T14:21:59;12.70;99.90
20977;DHT22;10647;51.016;3.720;2022-12-20T14:24:29;12.70;99.90
20977;DHT22;10647;51.016;3.720;2022-12-20T14:26:57;12.70;99.90
20977;DHT22;10647;51.016;3.720;2022-12-20T14:29:29;12.60;99.90
20977;DHT22;10647;51.016;3.720;2022-12-20T14:31:57;12.60;99.90
20977;DHT22;10647;51.016;3.720;2022-12-20T14:34:31;12.60;99.90
20977;DHT22;10647;51.016;3.720;2022-12-20T14:37:28;12.60;99.90
20977;DHT22;10647;51.016;3.720;2022-12-20T14:40:03;12.60;99.90
20977;DHT22;10647;51.016;3.720;2022-12-20T14:42:33;12.60;99.90
20977;DHT22;10647;51.016;3.720;2022-12-20T14:47:46;12.50;99.90
20977;DHT22;10647;51.016;3.720;2022-12-20T14:52:57;12.50;99.90
20977;DHT22;10647;51.016;3.720;2022-12-20T14:55:30;12.50;99.90
20977;DHT22;10647;51.016;3.720;2022-12-20T14:57:59;12.50;99.90
20977;DHT22;10647;51.016;3.720;2022-12-20T15:00:31;12.50;99.90
20977;DHT22;10647;51.016;3.720;2022-12-20T15:03:13;12.40;99.90
20977;DHT22;10647;51.016;3.720;2022-12-20T15:05:42;12.50;99.90
20977;DHT22;10647;51.016;3.720;2022-12-20T15:08:25;12.40;99.90
20977;DHT22;10647;51.016;3.720;2022-12-20T15:10:59;12.50;99.90
20977;DHT22;10647;51.016;3.720;2022-12-20T15:13:37;12.40;99.90
20977;DHT22;10647;51.016;3.720;2022-12-20T15:16:20;12.40;99.90
20977;DHT22;10647;51.016;3.720;2022-12-20T15:18:46;12.40;99.90
20977;DHT22;10647;51.016;3.720;2022-12-20T15:21:16;12.40;99.90
20977;DHT22;10647;51.016;3.720;2022-12-20T15:23:47;12.40;99.90
20977;DHT22;10647;51.016;3.720;2022-12-20T15:26:16;12.50;99.90
20977;DHT22;10647;51.016;3.720;2022-12-20T15:29:03;12.40;99.90
20977;DHT22;10647;51.016;3.720;2022-12-20T15:31:33;12.40;99.90
20977;DHT22;10647;51.016;3.720;2022-12-20T15:34:03;12.40;99.90
20977;DHT22;10647;51.016;3.720;2022-12-20T15:36:31;12.40;99.90
20977;DHT22;10647;51.016;3.720;2022-12-20T15:39:01;12.40;99.90
20977;DHT22;10647;51.016;3.720;2022-12-20T15:41:31;12.40;99.90
20977;DHT22;10647;51.016;3.720;2022-12-20T15:44:05;12.40;99.90
20977;DHT22;10647;51.016;3.720;2022-12-20T15:46:34;12.40;99.90
20977;DHT22;10647;51.016;3.720;2022-12-20T15:49:01;12.40;99.90
20977;DHT22;10647;51.016;3.720;2022-12-20T15:51:34;12.40;99.90
20977;DHT22;10647;51.016;3.720;2022-12-20T15:54:04;12.40;99.90
20977;DHT22;10647;51.016;3.720;2022-12-20T15:56:32;12.40;99.90
20977;DHT22;10647;51.016;3.720;2022-12-20T15:59:00;12.30;99.90
20977;DHT22;10647;51.016;3.720;2022-12-20T16:01:38;12.40;99.90
20977;DHT22;10647;51.016;3.720;2022-12-20T16:04:05;12.40;99.90
20977;DHT22;10647;51.016;3.720;2022-12-20T16:06:33;12.40;99.90
20977;DHT22;10647;51.016;3.720;2022-12-20T16:09:00;12.40;99.90
20977;DHT22;10647;51.016;3.720;2022-12-20T16:11:30;12.40;99.90
20977;DHT22;10647;51.016;3.720;2022-12-20T16:13:58;12.40;99.90
20977;DHT22;10647;51.016;3.720;2022-12-20T16:16:29;12.40;99.90
20977;DHT22;10647;51.016;3.720;2022-12-20T16:18:56;12.40;99.90
20977;DHT22;10647;51.016;3.720;2022-12-20T16:21:26;12.50;99.90
20977;DHT22;10647;51.016;3.720;2022-12-20T16:23:56;12.50;99.90
20977;DHT22;10647;51.016;3.720;2022-12-20T16:26:25;12.50;99.90
20977;DHT22;10647;51.016;3.720;2022-12-20T16:28:53;12.50;99.90
20977;DHT22;10647;51.016;3.720;2022-12-20T16:31:36;12.70;99.90
20977;DHT22;10647;51.016;3.720;2022-12-20T16:34:06;12.50;99.90
20977;DHT22;10647;51.016;3.720;2022-12-20T16:36:34;12.50;99.90
20977;DHT22;10647;51.016;3.720;2022-12-20T16:39:02;12.50;99.90
20977;DHT22;10647;51.016;3.720;2022-12-20T16:41:32;12.50;99.90
20977;DHT22;10647;51.016;3.720;2022-12-20T16:44:03;12.50;99.90
20977;DHT22;10647;51.016;3.720;2022-12-20T16:46:31;12.50;99.90
20977;DHT22;10647;51.016;3.720;2022-12-20T16:49:00;12.50;99.90
20977;DHT22;10647;51.016;3.720;2022-12-20T16:51:33;12.50;99.90
20977;DHT22;10647;51.016;3.720;2022-12-20T16:54:11;12.60;99.90
20977;DHT22;10647;51.016;3.720;2022-12-20T16:56:52;12.60;99.90
20977;DHT22;10647;51.016;3.720;2022-12-20T16:59:24;12.60;99.90
20977;DHT22;10647;51.016;3.720;2022-12-20T17:01:54;12.60;99.90
20977;DHT22;10647;51.016;3.720;2022-12-20T17:04:22;12.60;99.90
20977;DHT22;10647;51.016;3.720;2022-12-20T17:06:51;12.50;99.90
20977;DHT22;10647;51.016;3.720;2022-12-20T17:09:19;12.60;99.90
20977;DHT22;10647;51.016;3.720;2022-12-20T17:11:46;12.60;99.90
20977;DHT22;10647;51.016;3.720;2022-12-20T17:14:15;12.60;99.90
20977;DHT22;10647;51.016;3.720;2022-12-20T17:16:44;12.50;99.90
20977;DHT22;10647;51.016;3.720;2022-12-20T17:19:12;12.60;99.90
20977;DHT22;10647;51.016;3.720;2022-12-20T17:21:47;12.60;99.90
20977;DHT22;10647;51.016;3.720;2022-12-20T17:24:20;12.60;99.90
20977;DHT22;10647;51.016;3.720;2022-12-20T17:26:48;12.50;99.90
20977;DHT22;10647;51.016;3.720;2022-12-20T17:29:16;12.60;99.90
20977;DHT22;10647;51.016;3.720;2022-12-20T17:31:46;12.50;99.90
20977;DHT22;10647;51.016;3.720;2022-12-20T17:34:27;12.60;99.90
20977;DHT22;10647;51.016;3.720;2022-12-20T17:36:55;12.60;99.90
20977;DHT22;10647;51.016;3.720;2022-12-20T17:39:24;12.60;99.90
20977;DHT22;10647;51.016;3.720;2022-12-20T17:41:57;12.60;99.90
20977;DHT22;10647;51.016;3.720;2022-12-20T17:44:27;12.60;99.90
20977;DHT22;10647;51.016;3.720;2022-12-20T17:46:56;12.60;99.90
20977;DHT22;10647;51.016;3.720;2022-12-20T17:49:24;12.60;99.90
20977;DHT22;10647;51.016;3.720;2022-12-20T17:51:51;12.50;99.90
20977;DHT22;10647;51.016;3.720;2022-12-20T17:54:21;12.60;99.90
20977;DHT22;10647;51.016;3.720;2022-12-20T17:56:49;12.60;99.90
20977;DHT22;10647;51.016;3.720;2022-12-20T17:59:17;12.60;99.90
20977;DHT22;10647;51.016;3.720;2022-12-20T18:01:45;12.50;99.90
20977;DHT22;10647;51.016;3.720;2022-12-20T18:04:14;12.50;99.90
20977;DHT22;10647;51.016;3.720;2022-12-20T18:06:44;12.50;99.90
20977;DHT22;10647;51.016;3.720;2022-12-20T18:09:19;12.50;99.90
20977;DHT22;10647;51.016;3.720;2022-12-20T18:11:42;12.50;99.90
20977;DHT22;10647;51.016;3.720;2022-12-20T18:14:11;12.50;99.90
20977;DHT22;10647;51.016;3.720;2022-12-20T18:16:39;12.50;99.90
20977;DHT22;10647;51.016;3.720;2022-12-20T18:19:07;12.50;99.90
20977;DHT22;10647;51.016;3.720;2022-12-20T18:21:36;12.50;99.90